createdAt,value
2022-12-03T00:01:59.111Z,26.80
2022-12-03T00:04:25.752Z,27.20
2022-12-03T00:06:52.487Z,26.40
2022-12-03T00:09:19.309Z,26.30
2022-12-03T00:11:45.996Z,26.30
2022-12-03T00:14:12.609Z,26.90
2022-12-03T00:16:39.254Z,26.10
2022-12-03T00:19:07.094Z,26.10
2022-12-03T00:21:34.024Z,26.60
2022-12-03T00:24:00.659Z,27.30
2022-12-03T00:26:27.512Z,26.90
2022-12-03T00:28:54.474Z,26.70
2022-12-03T00:31:22.998Z,26.30
2022-12-03T00:33:50.730Z,27.10
2022-12-03T00:36:17.897Z,26.10
2022-12-03T00:38:45.177Z,27.00
2022-12-03T00:41:12.483Z,26.30
2022-12-03T00:43:39.186Z,27.20
2022-12-03T00:46:05.883Z,26.40
2022-12-03T00:48:32.723Z,27.60
2022-12-03T00:50:59.291Z,28.00
2022-12-03T00:53:26.694Z,27.00
2022-12-03T00:55:53.333Z,27.60
2022-12-03T00:58:19.925Z,27.10
2022-12-03T01:00:46.521Z,27.10
2022-12-03T01:03:13.113Z,26.70
2022-12-03T01:05:39.730Z,26.80
2022-12-03T01:08:06.432Z,27.80
2022-12-03T01:10:33.107Z,27.30
2022-12-03T01:12:59.787Z,27.10
2022-12-03T01:15:26.480Z,27.10
2022-12-03T01:17:53.882Z,27.40
2022-12-03T01:20:20.815Z,27.40
2022-12-03T01:22:47.435Z,27.40
2022-12-03T01:25:14.174Z,26.40
2022-12-03T01:27:41.078Z,28.00
2022-12-03T01:30:08.820Z,27.40
2022-12-03T01:32:35.547Z,27.30
2022-12-03T01:35:02.283Z,26.90
2022-12-03T01:37:28.991Z,26.90
2022-12-03T01:39:55.697Z,26.70
2022-12-03T01:42:26.329Z,26.30
2022-12-03T01:44:57.275Z,27.00
2022-12-03T01:47:29.021Z,27.50
2022-12-03T01:50:14.759Z,27.60
2022-12-03T01:52:41.868Z,28.10
2022-12-03T01:55:15.942Z,27.00
2022-12-03T01:57:50.833Z,26.60
2022-12-03T02:00:23.444Z,27.30
2022-12-03T02:02:54.450Z,28.20
2022-12-03T02:05:25.646Z,27.20
2022-12-03T02:07:52.806Z,26.60
2022-12-03T02:10:26.081Z,26.00
2022-12-03T02:13:12.882Z,27.10
2022-12-03T02:15:40.005Z,27.20
2022-12-03T02:18:08.298Z,26.70
2022-12-03T02:20:45.174Z,27.90
2022-12-03T02:23:20.992Z,27.10
2022-12-03T02:25:47.586Z,26.70
2022-12-03T02:28:14.353Z,27.00
2022-12-03T02:30:41.396Z,28.80
2022-12-03T02:33:08.083Z,28.10
2022-12-03T02:35:36.835Z,29.40
2022-12-03T02:38:13.276Z,28.50
2022-12-03T02:40:41.396Z,28.30
2022-12-03T02:43:09.144Z,27.40
2022-12-03T02:45:41.064Z,27.70
2022-12-03T02:48:12.494Z,27.70
2022-12-03T02:50:41.861Z,26.50
2022-12-03T02:53:14.699Z,28.20
2022-12-03T02:55:41.989Z,30.00
2022-12-03T02:58:10.169Z,28.70
2022-12-03T03:00:37.886Z,27.70
2022-12-03T03:03:06.384Z,28.30
2022-12-03T03:05:34.412Z,28.80
2022-12-03T03:08:01.581Z,28.60
2022-12-03T03:10:29.069Z,28.60
2022-12-03T03:12:56.080Z,29.90
2022-12-03T03:15:23.174Z,30.00
2022-12-03T03:17:50.092Z,30.20
2022-12-03T03:20:17.009Z,30.50
2022-12-03T03:22:43.628Z,29.90
2022-12-03T03:25:14.735Z,30.40
2022-12-03T03:27:41.721Z,30.00
2022-12-03T03:30:09.641Z,31.10
2022-12-03T03:32:37.815Z,31.80
2022-12-03T03:35:05.683Z,31.10
2022-12-03T03:37:32.380Z,30.70
2022-12-03T03:39:59.032Z,30.30
2022-12-03T03:42:25.712Z,31.00
2022-12-03T03:44:52.641Z,30.90
2022-12-03T03:47:19.515Z,30.40
2022-12-03T03:49:47.526Z,30.30
2022-12-03T03:52:14.197Z,29.60
2022-12-03T03:54:41.106Z,31.00
2022-12-03T03:57:07.857Z,30.00
2022-12-03T03:59:34.648Z,29.20
2022-12-03T04:02:01.240Z,30.80
2022-12-03T04:04:33.676Z,30.20
2022-12-03T04:07:00.279Z,30.00
2022-12-03T04:09:26.906Z,29.80
2022-12-03T04:12:11.938Z,30.00
2022-12-03T04:14:38.561Z,30.20
2022-12-03T04:17:05.121Z,31.10
2022-12-03T04:19:31.736Z,29.70
2022-12-03T04:22:17.311Z,30.00
2022-12-03T04:24:43.886Z,31.00
2022-12-03T04:27:28.912Z,30.30
2022-12-03T04:29:55.563Z,29.60
2022-12-03T04:32:40.788Z,30.00
2022-12-03T04:35:27.898Z,28.50
2022-12-03T04:37:54.540Z,28.80
2022-12-03T04:40:39.845Z,29.30
2022-12-03T04:43:06.415Z,30.00
2022-12-03T04:45:33.051Z,30.60
2022-12-03T04:47:59.704Z,30.50
2022-12-03T04:50:26.332Z,30.00
2022-12-03T04:52:52.926Z,30.20
2022-12-03T04:55:19.599Z,30.20
2022-12-03T04:57:46.192Z,30.10
2022-12-03T05:00:13.499Z,29.70
2022-12-03T05:02:40.433Z,30.70
2022-12-03T05:05:07.702Z,29.20
2022-12-03T05:07:34.416Z,30.50
2022-12-03T05:10:01.098Z,31.50
2022-12-03T05:12:27.688Z,31.30
2022-12-03T05:14:54.456Z,31.00
2022-12-03T05:17:21.192Z,30.50
2022-12-03T05:20:06.250Z,31.90
2022-12-03T05:22:32.831Z,32.60
2022-12-03T05:24:59.434Z,31.70
2022-12-03T05:27:26.040Z,32.30
2022-12-03T05:29:52.895Z,31.20
2022-12-03T05:32:19.501Z,30.10
2022-12-03T05:34:46.257Z,31.80
2022-12-03T05:37:12.996Z,33.30
2022-12-03T05:39:39.630Z,33.30
2022-12-03T05:42:25.129Z,33.10
2022-12-03T05:44:51.849Z,31.50
2022-12-03T05:47:18.720Z,31.90
2022-12-03T05:49:45.428Z,32.50
2022-12-03T05:52:12.196Z,32.90
2022-12-03T05:54:38.808Z,33.40
2022-12-03T05:57:05.495Z,31.60
2022-12-03T05:59:32.182Z,32.30
2022-12-03T06:01:58.923Z,34.60
2022-12-03T06:04:25.492Z,34.20
2022-12-03T06:06:52.256Z,33.60
2022-12-03T06:09:18.857Z,32.10
2022-12-03T06:11:45.422Z,32.30
2022-12-03T06:14:12.043Z,35.60
2022-12-03T06:16:38.655Z,35.80
2022-12-03T06:19:05.272Z,34.90
2022-12-03T06:21:31.830Z,36.20
2022-12-03T06:23:59.373Z,35.00
2022-12-03T06:26:26.171Z,38.30
2022-12-03T06:28:52.793Z,35.70
2022-12-03T06:31:19.386Z,34.10
2022-12-03T06:33:45.980Z,35.90
2022-12-03T06:36:12.567Z,33.50
2022-12-03T06:38:39.195Z,33.30
2022-12-03T06:41:05.734Z,33.10
2022-12-03T06:43:32.465Z,35.50
2022-12-03T06:45:59.223Z,33.30
2022-12-03T06:48:25.947Z,34.00
2022-12-03T06:50:52.515Z,33.90
2022-12-03T06:53:19.119Z,33.30
2022-12-03T06:55:45.795Z,33.20
2022-12-03T06:58:12.438Z,34.00
2022-12-03T07:00:39.076Z,34.70
2022-12-03T07:03:05.739Z,33.30
2022-12-03T07:05:32.307Z,33.90
2022-12-03T07:07:59.876Z,34.60
2022-12-03T07:10:26.562Z,34.60
2022-12-03T07:12:53.220Z,34.90
2022-12-03T07:15:20.090Z,35.20
2022-12-03T07:17:46.646Z,33.90
2022-12-03T07:20:15.748Z,33.60
2022-12-03T07:22:42.328Z,33.20
2022-12-03T07:25:09.180Z,34.50
2022-12-03T07:27:35.778Z,35.50
2022-12-03T07:30:02.607Z,33.80
2022-12-03T07:32:29.213Z,35.40
2022-12-03T07:34:56.010Z,35.60
2022-12-03T07:37:23.500Z,35.10
2022-12-03T07:39:51.972Z,35.70
2022-12-03T07:42:18.616Z,33.70
2022-12-03T07:44:45.215Z,34.70
2022-12-03T07:47:11.809Z,34.30
2022-12-03T07:49:38.461Z,34.60
2022-12-03T07:52:06.645Z,33.40
2022-12-03T07:54:33.583Z,34.10
2022-12-03T07:57:01.831Z,35.30
2022-12-03T07:59:28.966Z,35.70
2022-12-03T08:01:55.564Z,34.50
2022-12-03T08:04:22.241Z,34.10
2022-12-03T08:06:49.018Z,33.10
2022-12-03T08:09:16.433Z,33.40
2022-12-03T08:11:47.139Z,33.30
2022-12-03T08:14:17.345Z,34.40
2022-12-03T08:16:45.935Z,33.20
2022-12-03T08:19:14.805Z,34.20
2022-12-03T08:21:42.356Z,32.20
2022-12-03T08:24:18.411Z,32.80
2022-12-03T08:26:46.665Z,31.60
2022-12-03T08:29:15.969Z,32.60
2022-12-03T08:31:48.705Z,32.00
2022-12-03T08:34:19.643Z,31.60
2022-12-03T08:36:50.103Z,31.70
2022-12-03T08:39:22.796Z,32.40
2022-12-03T08:42:14.870Z,31.90
2022-12-03T08:44:41.516Z,30.80
2022-12-03T08:47:08.113Z,31.00
2022-12-03T08:49:36.282Z,35.30
2022-12-03T08:52:12.685Z,33.60
2022-12-03T08:54:39.380Z,35.60
2022-12-03T08:57:24.298Z,32.80
2022-12-03T08:59:55.785Z,30.60
2022-12-03T09:02:30.544Z,30.00
2022-12-03T09:04:57.430Z,30.40
2022-12-03T09:07:24.007Z,31.90
2022-12-03T09:09:50.702Z,31.10
2022-12-03T09:12:17.288Z,30.40
2022-12-03T09:14:43.934Z,30.10
2022-12-03T09:17:10.690Z,29.60
2022-12-03T09:19:42.721Z,30.20
2022-12-03T09:22:12.725Z,30.50
2022-12-03T09:24:41.656Z,33.20
2022-12-03T09:27:08.298Z,49.70
2022-12-03T09:29:34.890Z,36.30
2022-12-03T09:32:01.559Z,33.30
2022-12-03T09:34:28.725Z,32.00
2022-12-03T09:36:55.542Z,30.40
2022-12-03T09:39:22.198Z,29.70
2022-12-03T09:41:49.151Z,30.40
2022-12-03T09:44:18.225Z,30.30
2022-12-03T09:46:45.765Z,31.20
2022-12-03T09:49:16.285Z,30.10
2022-12-03T09:51:44.864Z,33.60
2022-12-03T09:54:22.225Z,33.10
2022-12-03T09:56:49.086Z,31.00
2022-12-03T09:59:16.617Z,30.40
2022-12-03T10:01:43.873Z,31.70
2022-12-03T10:04:10.988Z,31.90
2022-12-03T10:06:42.382Z,31.80
2022-12-03T10:09:16.648Z,31.10
2022-12-03T10:11:43.224Z,32.40
2022-12-03T10:14:13.957Z,33.30
2022-12-03T10:16:41.325Z,32.70
2022-12-03T10:19:28.576Z,33.70
2022-12-03T10:21:55.311Z,33.00
2022-12-03T10:24:33.589Z,33.90
2022-12-03T10:27:19.079Z,32.80
2022-12-03T10:29:57.501Z,30.90
2022-12-03T10:32:40.301Z,34.20
2022-12-03T10:35:10.813Z,33.10
2022-12-03T10:37:55.128Z,34.30
2022-12-03T10:40:35.975Z,35.30
2022-12-03T10:43:14.156Z,34.50
2022-12-03T10:45:42.190Z,32.90
2022-12-03T10:48:20.743Z,33.80
2022-12-03T10:51:06.395Z,34.00
2022-12-03T10:53:35.653Z,34.60
2022-12-03T10:56:06.965Z,33.60
2022-12-03T10:58:36.198Z,33.80
2022-12-03T11:01:12.726Z,32.50
2022-12-03T11:03:39.460Z,33.00
2022-12-03T11:06:06.411Z,33.80
2022-12-03T11:08:35.965Z,31.80
2022-12-03T11:11:18.369Z,31.70
2022-12-03T11:13:53.385Z,32.80
2022-12-03T11:16:38.703Z,33.90
2022-12-03T11:19:42.359Z,32.30
2022-12-03T11:22:09.497Z,31.60
2022-12-03T11:24:38.670Z,30.50
2022-12-03T11:27:09.343Z,31.40
2022-12-03T11:29:45.106Z,31.80
2022-12-03T11:32:37.699Z,31.10
2022-12-03T11:35:10.603Z,33.50
2022-12-03T11:37:37.631Z,33.60
2022-12-03T11:40:16.519Z,35.80
2022-12-03T11:42:45.364Z,35.10
2022-12-03T11:45:21.944Z,35.70
2022-12-03T11:47:57.265Z,34.50
2022-12-03T11:50:37.660Z,33.50
2022-12-03T11:53:24.361Z,33.20
2022-12-03T11:56:05.798Z,36.40
2022-12-03T11:58:33.794Z,36.90
2022-12-03T12:01:03.485Z,35.10
2022-12-03T12:03:36.084Z,34.90
2022-12-03T12:06:08.274Z,35.30
2022-12-03T12:08:38.283Z,35.60
2022-12-03T12:11:24.819Z,39.80
2022-12-03T12:14:01.660Z,42.20
2022-12-03T12:16:51.372Z,41.50
2022-12-03T12:19:42.397Z,41.50
2022-12-03T12:22:14.932Z,40.60
2022-12-03T12:24:47.355Z,39.40
2022-12-03T12:27:23.863Z,37.60
2022-12-03T12:30:03.394Z,38.20
2022-12-03T12:32:33.261Z,40.00
2022-12-03T12:35:13.828Z,37.80
2022-12-03T12:37:50.079Z,39.30
2022-12-03T12:40:29.351Z,40.30
2022-12-03T12:42:59.749Z,42.70
2022-12-03T12:45:44.439Z,40.20
2022-12-03T12:48:25.812Z,43.10
2022-12-03T12:51:10.659Z,42.70
2022-12-03T12:53:39.576Z,41.70
2022-12-03T12:56:10.789Z,40.40
2022-12-03T12:58:37.503Z,41.00
2022-12-03T13:01:21.262Z,41.00
2022-12-03T13:03:50.509Z,41.00
2022-12-03T13:06:27.314Z,44.60
2022-12-03T13:08:54.819Z,43.60
2022-12-03T13:11:24.451Z,46.20
2022-12-03T13:13:51.343Z,43.20
2022-12-03T13:16:19.686Z,40.40
2022-12-03T13:18:54.201Z,42.80
2022-12-03T13:21:21.519Z,41.80
2022-12-03T13:23:52.253Z,43.00
2022-12-03T13:26:38.376Z,41.80
2022-12-03T13:29:17.793Z,38.80
2022-12-03T13:31:59.656Z,38.80
2022-12-03T13:34:31.743Z,40.20
2022-12-03T13:37:00.865Z,38.90
2022-12-03T13:39:30.169Z,40.30
2022-12-03T13:42:27.368Z,39.50
2022-12-03T13:44:54.033Z,41.90
2022-12-03T13:47:22.758Z,43.80
2022-12-03T13:49:56.277Z,43.60
2022-12-03T13:52:25.297Z,44.10
2022-12-03T13:54:54.722Z,42.40
2022-12-03T13:57:22.400Z,40.50
2022-12-03T13:59:49.136Z,42.00
2022-12-03T14:02:15.808Z,41.40
2022-12-03T14:04:42.534Z,41.30
2022-12-03T14:07:09.208Z,42.10
2022-12-03T14:09:35.924Z,42.60
2022-12-03T14:12:22.401Z,43.30
2022-12-03T14:14:49.124Z,42.00
2022-12-03T14:17:15.783Z,41.10
2022-12-03T14:19:42.659Z,42.40
2022-12-03T14:22:09.569Z,40.50
2022-12-03T14:24:37.129Z,40.10
2022-12-03T14:27:03.735Z,37.60
2022-12-03T14:29:30.348Z,38.60
2022-12-03T14:31:57.037Z,39.30
2022-12-03T14:34:24.184Z,38.90
2022-12-03T14:36:50.738Z,38.40
2022-12-03T14:39:17.293Z,40.00
2022-12-03T14:42:02.606Z,39.70
2022-12-03T14:44:29.283Z,38.60
2022-12-03T14:46:57.477Z,40.00
2022-12-03T14:49:25.300Z,39.30
2022-12-03T14:51:52.069Z,38.60
2022-12-03T14:54:18.680Z,38.10
2022-12-03T14:56:45.286Z,40.00
2022-12-03T14:59:11.982Z,40.50
2022-12-03T15:01:38.725Z,43.30
2022-12-03T15:04:05.438Z,47.50
2022-12-03T15:06:32.151Z,43.20
2022-12-03T15:08:58.838Z,40.30
2022-12-03T15:11:25.472Z,40.40
2022-12-03T15:13:52.147Z,40.10
2022-12-03T15:16:18.833Z,41.90
2022-12-03T15:18:45.481Z,40.10
2022-12-03T15:21:12.121Z,40.10
2022-12-03T15:23:38.690Z,40.80
2022-12-03T15:26:05.540Z,41.20
2022-12-03T15:28:32.241Z,42.10
2022-12-03T15:30:58.978Z,41.00
2022-12-03T15:33:25.651Z,40.60
2022-12-03T15:35:52.364Z,38.90
2022-12-03T15:38:19.399Z,40.30
2022-12-03T15:40:46.147Z,40.90
2022-12-03T15:43:12.717Z,40.80
2022-12-03T15:45:39.780Z,40.70
2022-12-03T15:48:06.412Z,41.90
2022-12-03T15:50:38.499Z,41.60
2022-12-03T15:53:06.698Z,41.40
2022-12-03T15:55:33.278Z,41.90
2022-12-03T15:57:59.840Z,40.50
2022-12-03T16:00:26.517Z,40.00
2022-12-03T16:02:53.366Z,39.80
2022-12-03T16:05:19.992Z,39.70
2022-12-03T16:07:46.643Z,39.70
2022-12-03T16:10:13.479Z,40.70
2022-12-03T16:12:40.333Z,40.90
2022-12-03T16:15:07.619Z,41.10
2022-12-03T16:17:34.267Z,43.70
2022-12-03T16:20:00.896Z,44.20
2022-12-03T16:22:27.573Z,44.10
2022-12-03T16:24:54.124Z,42.50
2022-12-03T16:27:25.500Z,41.50
2022-12-03T16:29:52.889Z,41.80
2022-12-03T16:32:19.759Z,39.50
2022-12-03T16:34:46.403Z,38.30
2022-12-03T16:37:13.122Z,38.30
2022-12-03T16:39:47.301Z,38.90
2022-12-03T16:42:17.309Z,38.20
2022-12-03T16:45:04.471Z,37.50
2022-12-03T16:47:34.190Z,37.00
2022-12-03T16:50:08.044Z,37.90
2022-12-03T16:52:35.466Z,40.10
2022-12-03T16:55:02.499Z,40.50
2022-12-03T16:57:33.715Z,38.80
2022-12-03T17:00:01.108Z,36.30
2022-12-03T17:02:28.101Z,37.10
2022-12-03T17:04:54.893Z,37.20
2022-12-03T17:07:21.588Z,38.20
2022-12-03T17:09:48.633Z,37.70
2022-12-03T17:12:15.296Z,38.60
2022-12-03T17:14:41.891Z,36.60
2022-12-03T17:17:08.526Z,38.30
2022-12-03T17:19:35.193Z,39.00
2022-12-03T17:22:01.858Z,36.50
2022-12-03T17:24:28.435Z,36.90
2022-12-03T17:26:55.058Z,37.00
2022-12-03T17:29:21.832Z,38.10
2022-12-03T17:31:48.578Z,36.90
2022-12-03T17:34:15.268Z,36.20
2022-12-03T17:36:41.864Z,36.50
2022-12-03T17:39:08.457Z,38.50
2022-12-03T17:41:35.077Z,40.80
2022-12-03T17:44:05.969Z,39.60
2022-12-03T17:46:35.664Z,39.70
2022-12-03T17:49:02.457Z,42.00
2022-12-03T17:51:29.081Z,42.10
2022-12-03T17:53:55.654Z,43.90
2022-12-03T17:56:22.351Z,45.00
2022-12-03T17:58:49.020Z,41.80
2022-12-03T18:01:15.697Z,41.00
2022-12-03T18:03:42.518Z,40.10
2022-12-03T18:06:09.410Z,38.90
2022-12-03T18:08:36.062Z,38.50
2022-12-03T18:11:02.661Z,37.60
2022-12-03T18:13:29.316Z,36.20
2022-12-03T18:15:56.287Z,37.20
2022-12-03T18:18:22.960Z,36.40
2022-12-03T18:20:51.101Z,35.80
2022-12-03T18:23:17.832Z,37.00
2022-12-03T18:25:44.493Z,36.00
2022-12-03T18:28:11.105Z,37.50
2022-12-03T18:30:37.729Z,36.00
2022-12-03T18:33:04.339Z,36.10
2022-12-03T18:35:31.052Z,37.30
2022-12-03T18:37:57.917Z,36.90
2022-12-03T18:40:26.505Z,36.20
2022-12-03T18:42:53.177Z,34.70
2022-12-03T18:45:19.993Z,36.60
2022-12-03T18:47:46.781Z,34.90
2022-12-03T18:50:13.545Z,35.80
2022-12-03T18:52:40.271Z,35.80
2022-12-03T18:55:08.035Z,35.10
2022-12-03T18:57:34.755Z,34.20
2022-12-03T19:00:10.228Z,36.20
2022-12-03T19:03:01.851Z,33.90
2022-12-03T19:05:26.696Z,35.60
2022-12-03T19:07:54.950Z,33.80
2022-12-03T19:10:21.720Z,37.10
2022-12-03T19:12:48.516Z,35.40
2022-12-03T19:15:15.394Z,33.00
2022-12-03T19:17:42.095Z,34.10
2022-12-03T19:20:10.292Z,33.20
2022-12-03T19:22:36.946Z,34.20
2022-12-03T19:25:04.419Z,34.90
2022-12-03T19:27:31.668Z,36.30
2022-12-03T19:29:58.393Z,35.00
2022-12-03T19:32:25.023Z,35.70
2022-12-03T19:34:51.677Z,36.20
2022-12-03T19:37:18.344Z,35.20
2022-12-03T19:39:45.210Z,34.50
2022-12-03T19:42:11.882Z,36.60
2022-12-03T19:44:38.671Z,35.70
2022-12-03T19:47:05.305Z,34.50
2022-12-03T19:49:32.042Z,33.20
2022-12-03T19:51:58.653Z,32.50
2022-12-03T19:54:25.351Z,34.50
2022-12-03T19:56:51.978Z,33.20
2022-12-03T19:59:18.586Z,35.00
2022-12-03T20:01:45.304Z,33.70
2022-12-03T20:04:12.103Z,33.40
2022-12-03T20:06:38.882Z,33.50
2022-12-03T20:09:11.482Z,33.80
2022-12-03T20:11:39.710Z,33.70
2022-12-03T20:14:08.974Z,32.80
2022-12-03T20:16:36.487Z,35.30
2022-12-03T20:19:06.235Z,34.20
2022-12-03T20:21:35.849Z,34.20
2022-12-03T20:24:03.083Z,34.20
2022-12-03T20:26:30.058Z,33.20
2022-12-03T20:28:57.381Z,32.80
2022-12-03T20:31:27.252Z,33.60
2022-12-03T20:33:56.673Z,34.00
2022-12-03T20:36:24.703Z,34.30
2022-12-03T20:39:00.748Z,33.70
2022-12-03T20:41:28.504Z,33.40
2022-12-03T20:43:55.460Z,33.30
2022-12-03T20:46:25.754Z,33.20
2022-12-03T20:48:55.987Z,31.80
2022-12-03T20:51:25.858Z,32.20
2022-12-03T20:53:53.261Z,33.70
2022-12-03T20:56:23.421Z,32.10
2022-12-03T20:58:50.541Z,33.00
2022-12-03T21:01:19.395Z,32.50
2022-12-03T21:03:46.933Z,32.30
2022-12-03T21:06:15.057Z,33.50
2022-12-03T21:08:43.147Z,33.30
2022-12-03T21:11:15.384Z,32.10
2022-12-03T21:13:43.071Z,31.00
2022-12-03T21:16:13.112Z,31.20
2022-12-03T21:18:40.185Z,33.10
2022-12-03T21:21:08.195Z,32.30
2022-12-03T21:23:35.201Z,33.20
2022-12-03T21:26:04.042Z,32.20
2022-12-03T21:28:30.775Z,31.60
2022-12-03T21:31:08.841Z,33.70
2022-12-03T21:33:36.798Z,32.10
2022-12-03T21:36:04.845Z,31.50
2022-12-03T21:38:32.472Z,31.00
2022-12-03T21:40:59.807Z,31.70
2022-12-03T21:43:27.093Z,31.60
2022-12-03T21:45:53.855Z,30.40
2022-12-03T21:48:21.017Z,30.80
2022-12-03T21:51:07.469Z,30.00
2022-12-03T21:53:40.474Z,30.90
2022-12-03T21:56:13.245Z,33.40
2022-12-03T21:58:40.391Z,38.90
2022-12-03T22:01:12.108Z,37.90
2022-12-03T22:03:39.192Z,45.60
2022-12-03T22:06:06.078Z,43.70
2022-12-03T22:08:32.754Z,42.80
2022-12-03T22:11:04.272Z,34.60
2022-12-03T22:13:30.878Z,35.40
2022-12-03T22:15:57.507Z,33.10
2022-12-03T22:18:24.274Z,32.40
2022-12-03T22:20:50.846Z,32.50
2022-12-03T22:23:17.461Z,32.80
2022-12-03T22:25:44.032Z,32.80
2022-12-03T22:28:10.619Z,35.20
2022-12-03T22:30:39.506Z,32.70
2022-12-03T22:33:06.271Z,34.00
2022-12-03T22:35:32.827Z,33.20
2022-12-03T22:37:59.441Z,33.40
2022-12-03T22:40:26.045Z,34.70
2022-12-03T22:42:52.650Z,36.40
2022-12-03T22:45:19.266Z,33.90
2022-12-03T22:47:45.920Z,35.20
2022-12-03T22:50:12.558Z,34.10
2022-12-03T22:52:39.120Z,32.70
2022-12-03T22:55:06.417Z,33.20
2022-12-03T22:57:32.975Z,33.20
2022-12-03T22:59:59.604Z,34.50
2022-12-03T23:02:26.236Z,36.30
2022-12-03T23:04:55.188Z,37.60
2022-12-03T23:07:21.783Z,36.00
2022-12-03T23:09:48.402Z,35.40
2022-12-03T23:12:15.044Z,35.80
2022-12-03T23:14:41.620Z,33.30
2022-12-03T23:17:08.195Z,34.80
2022-12-03T23:19:35.346Z,34.50
2022-12-03T23:22:01.933Z,33.40
2022-12-03T23:24:28.671Z,31.90
2022-12-03T23:26:56.098Z,32.40
2022-12-03T23:29:22.676Z,31.90
2022-12-03T23:31:49.317Z,32.80
2022-12-03T23:34:16.081Z,31.90
2022-12-03T23:36:42.746Z,31.40
2022-12-03T23:39:09.594Z,31.00
2022-12-03T23:41:36.179Z,31.70
2022-12-03T23:44:02.756Z,31.80
2022-12-03T23:46:29.596Z,31.90
2022-12-03T23:48:58.172Z,33.10
2022-12-03T23:51:25.401Z,33.40
2022-12-03T23:53:54.208Z,32.30
2022-12-03T23:56:24.378Z,33.00
2022-12-03T23:58:51.376Z,34.00
